Time;durP1;ratioP1;P1;durP2;ratioP2;P2;SDS_P1;SDS_P2;PMS_P1;PMS_P2;Temp;Humidity;BMP_temperature;BMP_pressure;BME280_temperature;BME280_humidity;BME280_pressure;Samples;Min_cycle;Max_cycle;Signal;HPM_P1;HPM_P2
2023/05/01 00:00:09;;;;;;;7.13;3.60;;;;;;;;;;5010604;28;20700;-79
2023/05/01 00:02:41;;;;;;;5.50;3.70;;;;;;;;;;4983437;28;20216;-80
2023/05/01 00:05:10;;;;;;;5.43;3.50;;;;;;;;;;4982471;28;20228;-80
2023/05/01 00:07:38;;;;;;;7.03;3.80;;;;;;;;;;5017772;28;20220;-80
2023/05/01 00:10:03;;;;;;;5.50;3.90;;;;;;;;;;4979334;28;20284;-79
2023/05/01 00:12:29;;;;;;;5.20;3.40;;;;;;;;;;5017350;28;20577;-80
2023/05/01 00:14:55;;;;;;;5.63;3.90;;;;;;;;;;4994216;28;20216;-80
2023/05/01 00:17:23;;;;;;;4.73;3.60;;;;;;;;;;4994607;28;20212;-80
2023/05/01 00:19:55;;;;;;;4.13;3.60;;;;;;;;;;4997463;28;20216;-80
2023/05/01 00:22:20;;;;;;;5.80;4.33;;;;;;;;;;4985328;28;20349;-80
2023/05/01 00:24:47;;;;;;;4.57;3.60;;;;;;;;;;5013896;28;20645;-81
2023/05/01 00:27:13;;;;;;;6.03;3.43;;;;;;;;;;5013199;28;20660;-78
2023/05/01 00:29:41;;;;;;;7.50;3.50;;;;;;;;;;4998602;28;20235;-80
2023/05/01 00:32:06;;;;;;;6.87;3.63;;;;;;;;;;4996792;28;20267;-80
2023/05/01 00:34:32;;;;;;;9.37;3.47;;;;;;;;;;4998636;28;20228;-81
2023/05/01 00:36:58;;;;;;;6.87;3.73;;;;;;;;;;4997602;28;20216;-80
2023/05/01 00:39:23;;;;;;;4.87;3.60;;;;;;;;;;4992504;28;20790;-79
2023/05/01 00:41:49;;;;;;;8.00;3.90;;;;;;;;;;4982868;28;20223;-81
2023/05/01 00:44:15;;;;;;;5.83;3.70;;;;;;;;;;4974989;28;20228;-81
2023/05/01 00:46:42;;;;;;;5.90;3.60;;;;;;;;;;4980937;28;20266;-80
2023/05/01 00:49:08;;;;;;;4.50;3.60;;;;;;;;;;4994332;28;20275;-79
2023/05/01 00:51:35;;;;;;;6.83;3.47;;;;;;;;;;4978406;28;20244;-81
2023/05/01 00:54:04;;;;;;;6.33;3.43;;;;;;;;;;4990406;28;20687;-81
2023/05/01 00:56:30;;;;;;;6.83;3.20;;;;;;;;;;4982324;28;20278;-80
2023/05/01 00:58:58;;;;;;;5.13;3.70;;;;;;;;;;4979657;28;20233;-82
2023/05/01 01:01:24;;;;;;;5.33;3.47;;;;;;;;;;4986702;28;20222;-80
2023/05/01 01:03:53;;;;;;;5.23;3.77;;;;;;;;;;4998339;28;20223;-80
2023/05/01 01:07:07;;;;;;;5.87;3.27;;;;;;;;;;5007815;28;20213;-80
2023/05/01 01:09:40;;;;;;;4.37;3.47;;;;;;;;;;4938515;28;20250;-81
2023/05/01 01:12:12;;;;;;;5.30;3.40;;;;;;;;;;4951710;28;20371;-79
2023/05/01 01:14:54;;;;;;;6.37;3.77;;;;;;;;;;4987715;28;20263;-79
2023/05/01 01:17:41;;;;;;;5.03;3.30;;;;;;;;;;5009932;28;20687;-79
2023/05/01 01:20:22;;;;;;;6.10;3.47;;;;;;;;;;5025556;28;20225;-81
2023/05/01 01:22:58;;;;;;;8.53;3.67;;;;;;;;;;5017075;28;20223;-81
2023/05/01 01:25:42;;;;;;;5.67;3.77;;;;;;;;;;4997051;28;20239;-80
2023/05/01 01:28:30;;;;;;;4.70;3.73;;;;;;;;;;5028435;28;20228;-81
2023/05/01 01:31:25;;;;;;;9.10;4.00;;;;;;;;;;4997923;28;20221;-81
2023/05/01 01:34:03;;;;;;;4.83;3.30;;;;;;;;;;5014990;28;20278;-79
2023/05/01 01:36:40;;;;;;;7.20;3.27;;;;;;;;;;5014812;28;20240;-80
2023/05/01 01:39:28;;;;;;;4.30;3.80;;;;;;;;;;4990879;28;20266;-80
2023/05/01 01:41:53;;;;;;;5.80;3.77;;;;;;;;;;4994203;28;20215;-81
2023/05/01 01:44:53;;;;;;;6.07;3.40;;;;;;;;;;5000484;28;20307;-80
2023/05/01 01:47:19;;;;;;;4.50;3.40;;;;;;;;;;4977811;28;20217;-81
2023/05/01 01:49:49;;;;;;;5.90;3.93;;;;;;;;;;4998846;28;20319;-81
2023/05/01 01:52:14;;;;;;;5.67;3.60;;;;;;;;;;4997356;28;20217;-80
2023/05/01 01:54:51;;;;;;;5.93;3.60;;;;;;;;;;5001088;28;20244;-80
2023/05/01 01:57:18;;;;;;;7.33;3.93;;;;;;;;;;4995583;28;20752;-81
2023/05/01 01:59:46;;;;;;;4.97;3.70;;;;;;;;;;5009590;28;20235;-81
2023/05/01 02:02:11;;;;;;;5.27;3.80;;;;;;;;;;4984314;28;20950;-80
2023/05/01 02:04:42;;;;;;;6.17;3.93;;;;;;;;;;4999830;28;20308;-80
2023/05/01 02:07:08;;;;;;;5.47;3.70;;;;;;;;;;4998832;28;20259;-80
2023/05/01 02:09:33;;;;;;;5.00;3.87;;;;;;;;;;4996214;28;20720;-81
2023/05/01 02:12:04;;;;;;;5.80;3.77;;;;;;;;;;5014154;28;20243;-82
2023/05/01 02:14:30;;;;;;;7.90;3.80;;;;;;;;;;4983632;28;20709;-81
2023/05/01 02:16:57;;;;;;;5.43;3.90;;;;;;;;;;5000464;28;20224;-82
2023/05/01 02:19:23;;;;;;;4.40;3.70;;;;;;;;;;4993861;28;20228;-80
2023/05/01 02:21:49;;;;;;;5.90;4.10;;;;;;;;;;4984375;28;20667;-81
2023/05/01 02:24:17;;;;;;;6.60;4.53;;;;;;;;;;4997761;28;20929;-80
2023/05/01 02:26:49;;;;;;;7.90;3.60;;;;;;;;;;4998122;28;20685;-81
2023/05/01 02:29:14;;;;;;;5.80;3.90;;;;;;;;;;4993167;28;20220;-81
2023/05/01 02:31:40;;;;;;;7.27;4.30;;;;;;;;;;5013225;28;20223;-81
2023/05/01 02:34:10;;;;;;;5.83;4.23;;;;;;;;;;4991859;28;20239;-80
2023/05/01 02:36:36;;;;;;;5.87;4.20;;;;;;;;;;4997195;28;20244;-80
2023/05/01 02:39:03;;;;;;;6.10;4.20;;;;;;;;;;4989950;28;20269;-79
2023/05/01 02:41:28;;;;;;;7.43;4.00;;;;;;;;;;4995243;28;20225;-80
2023/05/01 02:44:03;;;;;;;5.77;4.13;;;;;;;;;;5020131;28;20744;-80
2023/05/01 02:46:34;;;;;;;8.10;4.10;;;;;;;;;;4973307;28;20251;-80
2023/05/01 02:49:01;;;;;;;6.87;3.63;;;;;;;;;;4980522;28;20279;-80
2023/05/01 02:51:26;;;;;;;4.93;3.90;;;;;;;;;;5002623;28;20224;-79
2023/05/01 02:53:52;;;;;;;5.27;3.83;;;;;;;;;;4994092;28;20224;-80
2023/05/01 02:56:21;;;;;;;7.20;3.80;;;;;;;;;;5009316;28;21002;-80
2023/05/01 02:58:50;;;;;;;7.03;3.90;;;;;;;;;;5001287;28;20299;-80
2023/05/01 03:01:15;;;;;;;6.90;4.10;;;;;;;;;;5019288;28;20221;-81
2023/05/01 03:03:41;;;;;;;4.07;3.63;;;;;;;;;;5001799;28;20654;-78
2023/05/01 03:06:07;;;;;;;6.57;4.10;;;;;;;;;;4971086;28;20234;-79
2023/05/01 03:08:32;;;;;;;4.60;3.60;;;;;;;;;;5008457;28;20216;-80
2023/05/01 03:11:05;;;;;;;6.93;3.70;;;;;;;;;;5014820;28;20254;-80
2023/05/01 03:13:33;;;;;;;6.20;3.83;;;;;;;;;;5010063;28;20231;-81
2023/05/01 03:15:59;;;;;;;5.43;3.97;;;;;;;;;;5010314;28;20231;-81
2023/05/01 03:18:25;;;;;;;5.33;3.27;;;;;;;;;;4995682;28;20254;-80
2023/05/01 03:20:55;;;;;;;6.77;3.73;;;;;;;;;;5004296;28;20220;-80
2023/05/01 03:23:26;;;;;;;8.30;4.17;;;;;;;;;;4979661;28;20240;-79
2023/05/01 03:25:53;;;;;;;6.27;4.10;;;;;;;;;;5011825;28;20699;-80
2023/05/01 03:28:22;;;;;;;6.90;4.10;;;;;;;;;;5009026;28;20263;-79
2023/05/01 03:30:51;;;;;;;7.60;3.87;;;;;;;;;;5030467;28;20741;-79
2023/05/01 03:33:19;;;;;;;6.00;3.90;;;;;;;;;;5010362;28;20228;-78
2023/05/01 03:35:45;;;;;;;5.90;4.10;;;;;;;;;;4995103;28;20221;-80
2023/05/01 03:38:12;;;;;;;5.40;3.70;;;;;;;;;;4997011;28;20830;-81
2023/05/01 03:40:57;;;;;;;5.03;4.00;;;;;;;;;;4998111;28;20306;-78
2023/05/01 03:43:41;;;;;;;5.00;3.80;;;;;;;;;;5003278;28;20289;-78
2023/05/01 03:46:15;;;;;;;4.00;3.63;;;;;;;;;;4980792;28;20826;-78
2023/05/01 03:48:41;;;;;;;6.27;3.67;;;;;;;;;;4995919;28;20224;-80
2023/05/01 03:51:07;;;;;;;6.93;4.00;;;;;;;;;;4976393;28;20303;-81
2023/05/01 03:53:35;;;;;;;5.23;3.87;;;;;;;;;;4989413;28;20251;-81
2023/05/01 03:56:04;;;;;;;4.37;3.80;;;;;;;;;;4991367;28;20216;-79
2023/05/01 03:58:30;;;;;;;6.50;3.83;;;;;;;;;;4990956;28;20228;-79
2023/05/01 04:00:59;;;;;;;5.50;3.87;;;;;;;;;;4979647;28;20274;-80
2023/05/01 04:03:25;;;;;;;6.90;3.90;;;;;;;;;;4985933;28;20709;-78
2023/05/01 04:05:52;;;;;;;5.67;3.97;;;;;;;;;;4996369;28;20227;-79
2023/05/01 04:08:18;;;;;;;6.20;3.93;;;;;;;;;;4989329;28;20849;-80
2023/05/01 04:10:43;;;;;;;7.47;3.97;;;;;;;;;;4989695;28;20220;-81
2023/05/01 04:13:09;;;;;;;9.00;4.20;;;;;;;;;;4995553;28;20311;-79
2023/05/01 04:15:35;;;;;;;5.17;4.20;;;;;;;;;;5004679;28;20238;-79
2023/05/01 04:18:01;;;;;;;5.87;3.73;;;;;;;;;;4988791;28;20479;-78
2023/05/01 04:20:27;;;;;;;7.83;3.83;;;;;;;;;;4991337;28;20216;-78
2023/05/01 04:22:53;;;;;;;7.67;3.97;;;;;;;;;;4993672;28;20271;-78
2023/05/01 04:25:19;;;;;;;4.23;3.73;;;;;;;;;;4978348;28;20316;-79
2023/05/01 04:27:50;;;;;;;8.10;3.97;;;;;;;;;;4986557;28;20308;-80
2023/05/01 04:30:16;;;;;;;4.50;3.60;;;;;;;;;;4992060;28;20226;-79
2023/05/01 04:32:42;;;;;;;7.83;3.63;;;;;;;;;;5007858;28;20247;-79
2023/05/01 04:35:11;;;;;;;6.30;3.60;;;;;;;;;;4976293;28;20993;-79
2023/05/01 04:37:39;;;;;;;4.40;3.20;;;;;;;;;;4987024;28;20217;-80
2023/05/01 04:40:05;;;;;;;6.13;3.43;;;;;;;;;;4986529;28;20714;-80
2023/05/01 04:42:31;;;;;;;5.63;3.60;;;;;;;;;;4996822;28;20228;-80
2023/05/01 04:45:00;;;;;;;5.00;3.20;;;;;;;;;;5000332;28;20314;-79
2023/05/01 04:47:33;;;;;;;4.13;3.20;;;;;;;;;;5000899;28;20243;-79
2023/05/01 04:50:00;;;;;;;4.30;3.40;;;;;;;;;;4998007;28;20227;-79
2023/05/01 04:52:25;;;;;;;6.93;3.50;;;;;;;;;;4998044;28;20216;-79
2023/05/01 04:54:56;;;;;;;6.10;3.30;;;;;;;;;;4999040;28;20227;-80
2023/05/01 04:57:24;;;;;;;7.60;3.63;;;;;;;;;;5000238;28;20217;-79
2023/05/01 04:59:52;;;;;;;5.60;3.10;;;;;;;;;;5003755;28;20216;-82
2023/05/01 05:02:17;;;;;;;5.97;3.60;;;;;;;;;;4999550;28;20247;-80
2023/05/01 05:04:48;;;;;;;6.20;3.47;;;;;;;;;;5013673;28;20224;-78
2023/05/01 05:07:13;;;;;;;5.30;3.03;;;;;;;;;;4983457;28;20274;-78
2023/05/01 05:09:59;;;;;;;5.53;3.33;;;;;;;;;;4974271;28;20220;-78
2023/05/01 05:12:25;;;;;;;5.20;3.20;;;;;;;;;;4994713;28;20224;-78
2023/05/01 05:14:50;;;;;;;5.60;3.67;;;;;;;;;;4995198;28;20235;-80
2023/05/01 05:17:19;;;;;;;8.47;4.00;;;;;;;;;;5000718;28;20561;-80
2023/05/01 05:19:47;;;;;;;5.90;3.40;;;;;;;;;;4983766;28;20223;-81
2023/05/01 05:22:15;;;;;;;5.30;3.43;;;;;;;;;;4978960;28;20632;-80
2023/05/01 05:25:03;;;;;;;5.77;3.37;;;;;;;;;;4986998;28;20225;-79
2023/05/01 05:27:30;;;;;;;6.10;3.17;;;;;;;;;;5003168;28;20220;-79
2023/05/01 05:29:56;;;;;;;5.97;3.10;;;;;;;;;;4992719;28;20251;-79
2023/05/01 05:32:21;;;;;;;4.93;3.13;;;;;;;;;;4988988;28;20220;-78
2023/05/01 05:34:47;;;;;;;6.03;3.40;;;;;;;;;;4989515;28;20234;-78
2023/05/01 05:37:14;;;;;;;5.03;3.00;;;;;;;;;;4978567;28;20230;-79
2023/05/01 05:39:47;;;;;;;5.33;3.17;;;;;;;;;;5012233;28;20221;-78
2023/05/01 05:42:13;;;;;;;5.80;3.13;;;;;;;;;;4964863;28;20250;-80
2023/05/01 05:44:43;;;;;;;4.73;3.07;;;;;;;;;;5003640;28;20231;-81
2023/05/01 05:47:10;;;;;;;4.07;2.93;;;;;;;;;;5003433;28;20233;-79
2023/05/01 05:49:35;;;;;;;5.97;3.13;;;;;;;;;;4982420;28;20222;-81
2023/05/01 05:52:01;;;;;;;6.63;3.00;;;;;;;;;;4996381;28;20228;-79
2023/05/01 05:54:29;;;;;;;4.30;2.73;;;;;;;;;;4988974;28;20220;-81
2023/05/01 05:56:54;;;;;;;3.50;2.80;;;;;;;;;;4982303;28;20228;-79
2023/05/01 05:59:20;;;;;;;4.20;3.20;;;;;;;;;;4986973;28;20216;-80
2023/05/01 06:01:48;;;;;;;5.27;2.90;;;;;;;;;;4994840;28;20300;-81
2023/05/01 06:04:15;;;;;;;5.87;3.20;;;;;;;;;;4994358;28;20227;-81
2023/05/01 06:06:43;;;;;;;8.53;3.40;;;;;;;;;;4995499;28;20216;-80
2023/05/01 06:09:10;;;;;;;3.90;2.73;;;;;;;;;;4994825;28;20212;-80
2023/05/01 06:11:38;;;;;;;6.87;2.90;;;;;;;;;;4996778;28;20274;-78
2023/05/01 06:14:06;;;;;;;4.07;3.00;;;;;;;;;;5001269;28;20232;-79
2023/05/01 06:16:32;;;;;;;5.50;3.00;;;;;;;;;;5013252;28;20220;-81
2023/05/01 06:18:58;;;;;;;4.33;2.60;;;;;;;;;;4991333;28;20604;-80
2023/05/01 06:21:24;;;;;;;5.00;2.70;;;;;;;;;;4996606;28;20271;-80
2023/05/01 06:23:50;;;;;;;7.47;2.80;;;;;;;;;;5015841;28;20243;-79
2023/05/01 06:26:30;;;;;;;3.53;2.70;;;;;;;;;;5013677;28;20235;-80
2023/05/01 06:28:56;;;;;;;5.13;2.90;;;;;;;;;;4999218;28;20254;-81
2023/05/01 06:31:22;;;;;;;3.70;2.80;;;;;;;;;;4980874;28;20225;-80
2023/05/01 06:33:52;;;;;;;5.10;2.93;;;;;;;;;;5002183;28;20315;-81
2023/05/01 06:36:28;;;;;;;5.47;2.60;;;;;;;;;;4982857;28;20263;-80
2023/05/01 06:38:54;;;;;;;4.67;2.60;;;;;;;;;;4999798;28;20311;-81
2023/05/01 06:41:20;;;;;;;5.63;2.70;;;;;;;;;;5002252;28;20211;-82
2023/05/01 06:43:46;;;;;;;5.60;2.63;;;;;;;;;;4988060;28;20583;-81
2023/05/01 06:46:15;;;;;;;4.30;2.53;;;;;;;;;;5000244;28;20259;-81
2023/05/01 06:48:40;;;;;;;3.90;2.30;;;;;;;;;;4999275;28;20220;-81
2023/05/01 06:51:08;;;;;;;4.10;2.43;;;;;;;;;;4991847;28;20327;-82
2023/05/01 06:53:34;;;;;;;4.93;2.30;;;;;;;;;;4988445;28;20697;-82
2023/05/01 06:55:59;;;;;;;4.83;2.70;;;;;;;;;;4998470;28;20277;-80
2023/05/01 06:58:25;;;;;;;5.60;2.77;;;;;;;;;;4994613;28;20220;-81
2023/05/01 07:00:52;;;;;;;4.10;2.50;;;;;;;;;;4988239;28;20739;-81
2023/05/01 07:03:17;;;;;;;4.47;2.60;;;;;;;;;;5001714;28;20212;-80
2023/05/01 07:05:43;;;;;;;4.07;2.60;;;;;;;;;;4993663;28;20609;-82
2023/05/01 07:08:09;;;;;;;5.33;2.20;;;;;;;;;;4998752;28;20311;-80
2023/05/01 07:10:34;;;;;;;4.77;2.40;;;;;;;;;;5000496;28;20576;-80
2023/05/01 07:13:00;;;;;;;4.07;2.07;;;;;;;;;;4998332;28;20303;-81
2023/05/01 07:15:25;;;;;;;4.33;2.30;;;;;;;;;;4994900;28;20220;-82
2023/05/01 07:17:51;;;;;;;4.83;2.57;;;;;;;;;;4985491;28;20271;-79
2023/05/01 07:20:17;;;;;;;4.60;2.47;;;;;;;;;;4988085;28;20298;-79
2023/05/01 07:22:45;;;;;;;3.10;2.40;;;;;;;;;;5012677;28;20224;-79
2023/05/01 07:25:11;;;;;;;5.00;2.40;;;;;;;;;;5008668;28;20566;-79
2023/05/01 07:27:36;;;;;;;3.57;2.20;;;;;;;;;;4992323;28;20235;-80
2023/05/01 07:30:03;;;;;;;3.63;2.27;;;;;;;;;;4996695;28;20216;-83
2023/05/01 07:32:31;;;;;;;4.27;2.43;;;;;;;;;;4997706;28;20217;-81
2023/05/01 07:34:57;;;;;;;5.87;2.63;;;;;;;;;;5015438;28;20584;-81
2023/05/01 07:37:23;;;;;;;3.27;2.13;;;;;;;;;;4998426;28;20326;-83
2023/05/01 07:39:49;;;;;;;2.97;2.17;;;;;;;;;;4989590;28;20216;-82
2023/05/01 07:42:17;;;;;;;3.60;2.20;;;;;;;;;;5001427;28;20745;-81
2023/05/01 07:44:42;;;;;;;3.83;2.37;;;;;;;;;;4982426;28;20225;-82
2023/05/01 07:47:10;;;;;;;4.50;2.50;;;;;;;;;;4995814;28;20221;-81
2023/05/01 07:49:37;;;;;;;3.97;2.30;;;;;;;;;;4996486;28;20276;-82
2023/05/01 07:52:06;;;;;;;3.33;2.20;;;;;;;;;;4997273;28;20634;-82
2023/05/01 07:54:34;;;;;;;5.47;2.17;;;;;;;;;;4978823;28;20220;-83
2023/05/01 07:57:00;;;;;;;5.33;2.00;;;;;;;;;;4987802;28;20224;-81
2023/05/01 07:59:27;;;;;;;5.10;2.53;;;;;;;;;;4992074;28;20225;-82
2023/05/01 08:01:54;;;;;;;4.43;2.33;;;;;;;;;;4998712;28;20220;-81
2023/05/01 08:04:28;;;;;;;4.75;2.30;;;;;;;;;;4997516;28;20230;-81
2023/05/01 08:06:53;;;;;;;3.97;2.37;;;;;;;;;;4996106;28;20258;-82
2023/05/01 08:09:21;;;;;;;4.32;2.22;;;;;;;;;;4979742;28;20220;-81
2023/05/01 08:11:47;;;;;;;3.28;2.30;;;;;;;;;;4997053;28;20311;-81
2023/05/01 08:14:12;;;;;;;4.15;2.28;;;;;;;;;;4997072;28;20326;-82
2023/05/01 08:16:38;;;;;;;5.95;2.35;;;;;;;;;;4984481;28;20221;-81
2023/05/01 08:19:03;;;;;;;4.63;2.33;;;;;;;;;;4997194;28;20232;-80
2023/05/01 08:21:31;;;;;;;3.15;2.20;;;;;;;;;;5014089;28;20222;-79
2023/05/01 08:23:56;;;;;;;2.78;2.08;;;;;;;;;;4979607;28;20622;-80
2023/05/01 08:26:24;;;;;;;3.40;1.85;;;;;;;;;;5029907;28;20220;-81
2023/05/01 08:28:52;;;;;;;4.93;2.20;;;;;;;;;;4987201;28;20220;-81
2023/05/01 08:31:18;;;;;;;3.58;2.15;;;;;;;;;;4996531;28;20242;-81
2023/05/01 08:33:46;;;;;;;3.97;2.17;;;;;;;;;;5021303;28;20217;-81
2023/05/01 08:36:11;;;;;;;3.15;2.00;;;;;;;;;;4994831;28;20771;-82
2023/05/01 08:38:37;;;;;;;6.28;2.40;;;;;;;;;;4983791;28;20235;-81
2023/05/01 08:41:05;;;;;;;5.10;2.17;;;;;;;;;;4992429;28;20228;-80
2023/05/01 08:43:32;;;;;;;3.17;2.08;;;;;;;;;;4998756;28;20230;-80
2023/05/01 08:46:01;;;;;;;4.60;2.30;;;;;;;;;;4997758;28;20229;-81
2023/05/01 08:48:30;;;;;;;2.53;1.90;;;;;;;;;;4997944;28;20282;-80
2023/05/01 08:50:58;;;;;;;3.60;2.28;;;;;;;;;;4981952;28;20216;-81
2023/05/01 08:53:26;;;;;;;3.08;1.98;;;;;;;;;;4993216;28;20234;-81
2023/05/01 08:55:52;;;;;;;3.38;2.08;;;;;;;;;;4984849;28;20224;-82
2023/05/01 08:58:20;;;;;;;4.80;2.10;;;;;;;;;;4997299;28;20230;-81
2023/05/01 09:00:48;;;;;;;3.45;2.10;;;;;;;;;;4986431;28;20234;-80
2023/05/01 09:03:17;;;;;;;4.20;1.95;;;;;;;;;;4995954;28;20212;-81
2023/05/01 09:05:42;;;;;;;3.58;2.08;;;;;;;;;;4995001;28;20224;-79
2023/05/01 09:08:08;;;;;;;5.18;2.15;;;;;;;;;;4994696;28;20694;-82
2023/05/01 09:10:38;;;;;;;4.07;2.40;;;;;;;;;;4997081;28;21029;-80
2023/05/01 09:13:05;;;;;;;3.60;2.22;;;;;;;;;;4994849;28;20220;-81
2023/05/01 09:15:33;;;;;;;4.63;2.40;;;;;;;;;;4997843;28;20231;-82
2023/05/01 09:18:01;;;;;;;5.82;2.17;;;;;;;;;;5011201;28;20274;-81
2023/05/01 09:20:30;;;;;;;3.83;2.10;;;;;;;;;;4978701;28;20234;-80
2023/05/01 09:22:56;;;;;;;4.25;2.20;;;;;;;;;;4994116;28;20220;-83
2023/05/01 09:25:21;;;;;;;5.00;2.25;;;;;;;;;;5003158;28;20278;-80
2023/05/01 09:27:47;;;;;;;4.57;2.20;;;;;;;;;;4999881;28;20903;-81
2023/05/01 09:30:35;;;;;;;5.13;2.67;;;;;;;;;;4999402;28;20248;-82
2023/05/01 09:33:09;;;;;;;6.93;2.20;;;;;;;;;;4991397;28;20287;-81
2023/05/01 09:35:53;;;;;;;5.22;2.50;;;;;;;;;;5017131;28;20227;-80
2023/05/01 09:38:25;;;;;;;3.45;2.25;;;;;;;;;;4974325;28;20216;-82
2023/05/01 09:40:52;;;;;;;5.25;2.47;;;;;;;;;;4993027;28;20239;-82
2023/05/01 09:43:28;;;;;;;5.30;2.60;;;;;;;;;;4999409;28;20697;-81
2023/05/01 09:46:12;;;;;;;4.18;2.50;;;;;;;;;;5005336;28;20246;-81
2023/05/01 09:48:40;;;;;;;3.45;2.80;;;;;;;;;;4979483;28;20221;-80
2023/05/01 09:51:25;;;;;;;4.57;2.55;;;;;;;;;;4997130;28;20732;-80
2023/05/01 09:53:51;;;;;;;4.03;2.78;;;;;;;;;;5029044;28;20225;-76
2023/05/01 09:56:17;;;;;;;4.78;2.35;;;;;;;;;;5025915;28;20235;-78
2023/05/01 09:58:43;;;;;;;3.53;2.55;;;;;;;;;;5017081;28;20719;-79
2023/05/01 10:01:09;;;;;;;3.20;2.65;;;;;;;;;;5001334;28;20291;-78
2023/05/01 10:03:34;;;;;;;4.95;2.80;;;;;;;;;;5001199;28;20232;-77
2023/05/01 10:06:01;;;;;;;4.00;2.50;;;;;;;;;;5008487;28;20224;-77
2023/05/01 10:08:46;;;;;;;4.82;2.60;;;;;;;;;;4985001;28;20223;-77
2023/05/01 10:11:12;;;;;;;3.85;2.70;;;;;;;;;;5007320;28;20271;-78
2023/05/01 10:13:39;;;;;;;4.50;2.60;;;;;;;;;;5012276;28;20220;-78
2023/05/01 10:16:21;;;;;;;2.97;2.40;;;;;;;;;;5006788;28;20235;-79
2023/05/01 10:18:53;;;;;;;3.95;2.60;;;;;;;;;;5005220;28;20221;-78
2023/05/01 10:21:21;;;;;;;3.58;2.78;;;;;;;;;;5005079;28;20228;-80
2023/05/01 10:23:46;;;;;;;6.75;2.85;;;;;;;;;;5003424;28;20228;-80
2023/05/01 10:26:12;;;;;;;3.13;2.63;;;;;;;;;;5002887;28;20242;-80
2023/05/01 10:28:40;;;;;;;4.28;2.55;;;;;;;;;;5016997;28;20223;-78
2023/05/01 10:31:06;;;;;;;3.08;2.30;;;;;;;;;;5003859;28;20235;-80
2023/05/01 10:33:31;;;;;;;3.17;2.30;;;;;;;;;;4977016;28;20240;-77
2023/05/01 10:35:57;;;;;;;4.40;2.80;;;;;;;;;;5015370;28;20227;-79
2023/05/01 10:38:29;;;;;;;3.13;2.33;;;;;;;;;;4998853;28;20345;-82
2023/05/01 10:40:57;;;;;;;3.88;2.40;;;;;;;;;;4971941;28;20211;-79
2023/05/01 10:43:28;;;;;;;3.63;2.50;;;;;;;;;;4997087;28;23074;-81
2023/05/01 10:46:25;;;;;;;3.42;2.63;;;;;;;;;;5012458;28;20259;-81
2023/05/01 10:48:55;;;;;;;3.05;2.30;;;;;;;;;;5023480;28;20224;-80
2023/05/01 10:51:26;;;;;;;3.35;2.17;;;;;;;;;;5005389;28;20303;-80
2023/05/01 10:54:11;;;;;;;3.35;2.30;;;;;;;;;;4981701;28;20244;-78
2023/05/01 10:56:36;;;;;;;6.10;2.47;;;;;;;;;;5011091;28;20216;-77
2023/05/01 10:59:13;;;;;;;3.60;2.28;;;;;;;;;;5012562;28;20433;-80
2023/05/01 11:01:46;;;;;;;3.35;2.60;;;;;;;;;;5010403;28;20228;-81
2023/05/01 11:04:20;;;;;;;3.65;2.30;;;;;;;;;;4981479;28;20395;-80
2023/05/01 11:07:04;;;;;;;3.88;2.50;;;;;;;;;;5013130;28;20238;-78
2023/05/01 11:09:42;;;;;;;3.83;2.20;;;;;;;;;;5006198;28;20227;-79
2023/05/01 11:12:10;;;;;;;3.28;2.30;;;;;;;;;;5005227;28;20220;-80
2023/05/01 11:15:01;;;;;;;3.70;2.17;;;;;;;;;;4985613;28;20236;-79
2023/05/01 11:17:42;;;;;;;3.47;2.15;;;;;;;;;;5002884;28;20286;-79
2023/05/01 11:20:10;;;;;;;2.95;2.00;;;;;;;;;;5021436;28;20255;-80
2023/05/01 11:22:39;;;;;;;7.07;2.53;;;;;;;;;;4994030;28;20258;-79
2023/05/01 11:25:21;;;;;;;4.00;2.03;;;;;;;;;;4995616;28;20231;-80
2023/05/01 11:27:48;;;;;;;2.92;1.60;;;;;;;;;;4995631;28;20740;-80
2023/05/01 11:30:14;;;;;;;2.83;1.88;;;;;;;;;;4994972;28;20242;-79
2023/05/01 11:32:42;;;;;;;2.47;1.88;;;;;;;;;;4978891;28;20891;-80
2023/05/01 11:35:13;;;;;;;3.20;1.90;;;;;;;;;;5008978;28;20336;-79
2023/05/01 11:37:43;;;;;;;3.63;1.95;;;;;;;;;;4995635;28;20220;-79
2023/05/01 11:40:32;;;;;;;3.65;1.70;;;;;;;;;;4991151;28;20225;-79
2023/05/01 11:43:01;;;;;;;2.55;1.48;;;;;;;;;;4994415;28;20225;-79
2023/05/01 11:45:28;;;;;;;3.47;1.77;;;;;;;;;;5003553;28;20228;-80
2023/05/01 11:47:55;;;;;;;3.25;1.75;;;;;;;;;;4988007;28;20710;-79
2023/05/01 11:50:20;;;;;;;3.53;1.50;;;;;;;;;;4976574;28;20267;-80
2023/05/01 11:52:48;;;;;;;4.18;1.60;;;;;;;;;;4985804;28;20228;-79
2023/05/01 11:55:18;;;;;;;2.40;1.60;;;;;;;;;;4980441;28;20223;-79
2023/05/01 11:57:52;;;;;;;2.53;1.60;;;;;;;;;;4978704;28;20213;-78
2023/05/01 12:00:35;;;;;;;2.58;1.52;;;;;;;;;;4994110;28;20215;-78
2023/05/01 12:03:07;;;;;;;2.50;1.50;;;;;;;;;;4978234;28;20231;-79
2023/05/01 12:05:37;;;;;;;3.05;1.30;;;;;;;;;;5021305;28;20224;-77
2023/05/01 12:08:10;;;;;;;1.60;1.10;;;;;;;;;;4983013;28;20269;-78
2023/05/01 12:10:36;;;;;;;2.53;1.30;;;;;;;;;;4993736;28;20251;-78
2023/05/01 12:13:02;;;;;;;3.05;1.33;;;;;;;;;;4976320;28;20225;-80
2023/05/01 12:15:28;;;;;;;2.42;1.40;;;;;;;;;;4988668;28;20236;-79
2023/05/01 12:17:56;;;;;;;2.38;1.27;;;;;;;;;;4993468;28;20255;-78
2023/05/01 12:20:54;;;;;;;4.20;1.40;;;;;;;;;;4987019;28;20228;-78
2023/05/01 12:23:36;;;;;;;3.15;1.30;;;;;;;;;;4999962;28;20632;-78
2023/05/01 12:26:02;;;;;;;2.28;1.40;;;;;;;;;;4993379;28;20232;-79
2023/05/01 12:28:28;;;;;;;2.10;1.20;;;;;;;;;;4989098;28;20228;-78
2023/05/01 12:31:00;;;;;;;2.20;1.30;;;;;;;;;;4979524;28;20270;-77
2023/05/01 12:33:26;;;;;;;1.67;1.10;;;;;;;;;;5001183;28;20284;-78
2023/05/01 12:35:51;;;;;;;1.80;1.20;;;;;;;;;;4997376;28;20563;-78
2023/05/01 12:38:20;;;;;;;2.08;1.20;;;;;;;;;;4981424;28;20618;-81
2023/05/01 12:40:52;;;;;;;2.25;0.95;;;;;;;;;;5023927;28;20221;-78
2023/05/01 12:43:30;;;;;;;3.47;1.30;;;;;;;;;;5007814;28;20227;-79
2023/05/01 12:45:55;;;;;;;2.88;1.10;;;;;;;;;;4981060;28;20705;-80
2023/05/01 12:48:21;;;;;;;2.30;1.00;;;;;;;;;;5000471;28;20263;-78
2023/05/01 12:50:53;;;;;;;1.58;1.20;;;;;;;;;;5007994;28;20224;-79
2023/05/01 12:53:18;;;;;;;1.35;1.13;;;;;;;;;;5014466;28;20232;-80
2023/05/01 12:55:45;;;;;;;3.60;1.38;;;;;;;;;;4998370;28;20635;-80
2023/05/01 12:58:13;;;;;;;2.15;1.40;;;;;;;;;;5000465;28;20958;-80
2023/05/01 13:00:50;;;;;;;2.83;1.42;;;;;;;;;;4959842;28;20223;-79
2023/05/01 13:03:21;;;;;;;3.78;1.30;;;;;;;;;;5006249;28;20243;-78
2023/05/01 13:05:56;;;;;;;2.80;1.20;;;;;;;;;;5013952;28;20221;-78
2023/05/01 13:08:29;;;;;;;3.08;1.40;;;;;;;;;;5029353;28;20246;-81
2023/05/01 13:10:56;;;;;;;2.10;1.27;;;;;;;;;;5003298;28;20220;-79
2023/05/01 13:13:30;;;;;;;2.08;1.20;;;;;;;;;;4995934;28;20216;-78
2023/05/01 13:16:09;;;;;;;2.20;1.20;;;;;;;;;;5001119;28;20332;-81
2023/05/01 13:18:50;;;;;;;1.52;1.23;;;;;;;;;;5019786;28;20232;-80
2023/05/01 13:21:18;;;;;;;2.03;1.33;;;;;;;;;;4999574;28;20319;-78
2023/05/01 13:23:52;;;;;;;3.33;1.48;;;;;;;;;;5003149;28;20973;-79
2023/05/01 13:26:23;;;;;;;3.38;1.50;;;;;;;;;;5005152;28;20228;-79
2023/05/01 13:28:52;;;;;;;3.33;1.33;;;;;;;;;;5020750;28;20308;-80
2023/05/01 13:31:17;;;;;;;2.67;1.17;;;;;;;;;;4995809;28;20263;-78
2023/05/01 13:33:46;;;;;;;1.98;1.00;;;;;;;;;;4981841;28;20273;-80
2023/05/01 13:36:19;;;;;;;1.42;0.88;;;;;;;;;;4999091;28;20252;-80
2023/05/01 13:38:50;;;;;;;2.55;1.20;;;;;;;;;;4987436;28;20328;-80
2023/05/01 13:41:19;;;;;;;1.48;1.10;;;;;;;;;;4983288;28;20223;-81
2023/05/01 13:43:48;;;;;;;1.77;1.10;;;;;;;;;;4997610;28;20224;-81
2023/05/01 13:46:16;;;;;;;3.08;1.40;;;;;;;;;;4997997;28;20708;-78
2023/05/01 13:48:41;;;;;;;2.70;1.63;;;;;;;;;;5006370;28;20247;-79
2023/05/01 13:51:08;;;;;;;2.22;1.42;;;;;;;;;;4980030;28;20248;-79
2023/05/01 13:53:34;;;;;;;2.03;1.35;;;;;;;;;;5007392;28;20239;-79
2023/05/01 13:56:00;;;;;;;3.20;1.60;;;;;;;;;;4999969;28;20211;-79
2023/05/01 13:58:28;;;;;;;2.78;1.60;;;;;;;;;;5000913;28;20298;-80
2023/05/01 14:00:56;;;;;;;1.90;1.35;;;;;;;;;;4992403;28;20593;-82
2023/05/01 14:03:22;;;;;;;2.08;1.33;;;;;;;;;;4991556;28;20228;-81
2023/05/01 14:05:50;;;;;;;2.63;1.55;;;;;;;;;;5002744;28;20227;-83
2023/05/01 14:08:19;;;;;;;2.33;1.40;;;;;;;;;;5000211;28;20216;-79
2023/05/01 14:10:45;;;;;;;2.33;1.08;;;;;;;;;;5000341;28;20227;-79
2023/05/01 14:13:15;;;;;;;2.15;1.20;;;;;;;;;;4998774;28;20228;-81
2023/05/01 14:15:44;;;;;;;2.15;1.63;;;;;;;;;;5001409;28;20220;-81
2023/05/01 14:18:14;;;;;;;2.20;1.55;;;;;;;;;;5013767;28;20279;-80
2023/05/01 14:20:49;;;;;;;1.83;1.10;;;;;;;;;;4991441;28;20660;-80
2023/05/01 14:23:15;;;;;;;1.08;1.05;;;;;;;;;;5001151;28;20319;-80
2023/05/01 14:25:43;;;;;;;1.00;0.80;;;;;;;;;;5001902;28;20231;-79
2023/05/01 14:28:10;;;;;;;1.33;1.05;;;;;;;;;;4992875;28;20255;-78
2023/05/01 14:30:37;;;;;;;1.10;0.90;;;;;;;;;;5017348;28;20248;-80
2023/05/01 14:33:12;;;;;;;3.00;1.00;;;;;;;;;;4984680;28;20803;-78
2023/05/01 14:35:48;;;;;;;1.38;1.00;;;;;;;;;;5002626;28;20227;-81
2023/05/01 14:38:16;;;;;;;7.28;1.23;;;;;;;;;;5017210;28;20303;-78
2023/05/01 14:40:44;;;;;;;1.67;0.90;;;;;;;;;;4993992;28;20220;-82
2023/05/01 14:43:16;;;;;;;1.10;1.00;;;;;;;;;;4997118;28;20235;-80
2023/05/01 14:45:42;;;;;;;2.38;0.90;;;;;;;;;;5016907;28;20251;-79
2023/05/01 14:48:09;;;;;;;2.70;0.93;;;;;;;;;;5001865;28;20224;-80
2023/05/01 14:50:38;;;;;;;1.55;0.90;;;;;;;;;;5006331;28;20275;-79
2023/05/01 14:53:03;;;;;;;1.42;0.93;;;;;;;;;;4988799;28;20225;-79
2023/05/01 14:55:33;;;;;;;1.05;0.90;;;;;;;;;;4999253;28;20244;-80